Time;durP1;ratioP1;P1;durP2;ratioP2;P2;SDS_P1;SDS_P2;PMS_P1;PMS_P2;Temp;Humidity;BMP_temperature;BMP_pressure;BME280_temperature;BME280_humidity;BME280_pressure;Samples;Min_cycle;Max_cycle;Signal;HPM_P1;HPM_P2
2022/05/06 00:02:15;;;;;;;0.00;0.00;;;;;;;14.24;63.53;102675.75;5002507;28;20030;-80
2022/05/06 00:04:45;;;;;;;0.10;0.10;;;;;;;14.27;63.76;102677.50;5000708;28;20037;-80
2022/05/06 00:07:12;;;;;;;0.00;0.00;;;;;;;14.24;62.98;102672.16;5005122;28;20030;-80
2022/05/06 00:09:39;;;;;;;0.20;0.20;;;;;;;14.18;62.65;102686.44;5007717;28;20036;-78
2022/05/06 00:12:06;;;;;;;0.45;0.45;;;;;;;14.15;63.36;102680.25;5000000;28;20121;-80
2022/05/06 00:14:34;;;;;;;0.68;0.68;;;;;;;14.09;63.65;102681.16;4998939;28;20022;-79
2022/05/06 00:17:02;;;;;;;0.60;0.60;;;;;;;14.11;63.42;102683.81;5004402;28;20053;-78
2022/05/06 00:19:29;;;;;;;0.00;0.00;;;;;;;14.13;64.04;102677.59;5007188;28;20026;-79
2022/05/06 00:21:55;;;;;;;0.10;0.10;;;;;;;14.17;64.01;102682.00;5008436;28;20125;-79
2022/05/06 00:24:21;;;;;;;0.00;0.00;;;;;;;14.19;65.01;102681.97;5002084;28;20073;-80
2022/05/06 00:26:47;;;;;;;0.13;0.13;;;;;;;14.25;64.47;102671.28;5001054;28;20081;-80
2022/05/06 00:29:13;;;;;;;4.38;0.52;;;;;;;14.27;64.34;102673.94;5009758;28;20062;-79
2022/05/06 00:31:40;;;;;;;0.20;0.20;;;;;;;14.31;63.90;102676.56;4997150;28;20050;-79
2022/05/06 00:34:06;;;;;;;1.52;0.65;;;;;;;14.32;64.17;102670.34;4995775;28;20142;-80
2022/05/06 00:36:32;;;;;;;0.10;0.10;;;;;;;14.35;63.92;102673.00;5011409;28;20038;-80
2022/05/06 00:38:58;;;;;;;0.00;0.00;;;;;;;14.37;64.79;102668.53;5006014;28;20041;-78
2022/05/06 00:41:24;;;;;;;0.10;0.10;;;;;;;14.37;64.68;102665.88;5002757;28;20120;-80
2022/05/06 00:43:50;;;;;;;0.00;0.00;;;;;;;14.40;63.21;102667.63;5003024;28;20032;-80
2022/05/06 00:46:17;;;;;;;0.10;0.10;;;;;;;14.42;64.23;102663.19;5003530;28;20050;-79
2022/05/06 00:48:48;;;;;;;0.10;0.10;;;;;;;14.44;65.51;102666.69;4997172;28;20470;-80
2022/05/06 00:51:17;;;;;;;0.52;0.52;;;;;;;14.47;64.49;102657.81;5005469;28;20037;-80
2022/05/06 00:53:44;;;;;;;0.28;0.28;;;;;;;14.49;64.49;102658.69;5003508;28;20036;-79
2022/05/06 00:56:12;;;;;;;0.10;0.10;;;;;;;14.47;64.86;102658.69;5005618;28;20101;-79
2022/05/06 00:58:39;;;;;;;1.02;1.00;;;;;;;14.48;64.50;102652.47;5000485;28;20057;-80
2022/05/06 01:01:06;;;;;;;0.77;0.77;;;;;;;14.51;63.83;102652.44;4995911;28;20042;-80
2022/05/06 01:03:33;;;;;;;0.10;0.10;;;;;;;14.51;64.45;102663.09;5007998;28;20034;-80
2022/05/06 01:06:02;;;;;;;0.10;0.10;;;;;;;14.50;64.09;102658.66;5012721;28;20084;-79
2022/05/06 01:08:29;;;;;;;0.43;0.43;;;;;;;14.50;63.64;102664.00;5004420;28;20027;-78
2022/05/06 01:10:57;;;;;;;3.63;1.50;;;;;;;14.48;63.81;102663.16;4999132;28;20034;-80
2022/05/06 01:13:24;;;;;;;0.00;0.00;;;;;;;14.44;64.63;102665.84;4994977;28;20037;-78
2022/05/06 01:15:53;;;;;;;0.55;0.55;;;;;;;14.47;64.28;102665.81;5008549;28;20103;-78
2022/05/06 01:18:19;;;;;;;0.82;0.82;;;;;;;14.43;64.21;102661.38;4993367;28;20519;-80
2022/05/06 01:20:49;;;;;;;0.00;0.00;;;;;;;14.43;64.26;102669.38;4999350;28;20057;-79
2022/05/06 01:23:16;;;;;;;2.92;0.90;;;;;;;14.42;63.80;102678.28;4997733;28;20030;-80
2022/05/06 01:25:44;;;;;;;1.10;0.47;;;;;;;14.32;64.23;102670.34;5007288;28;20045;-80
2022/05/06 01:28:13;;;;;;;0.00;0.00;;;;;;;14.32;63.01;102683.69;4999452;28;20062;-80
2022/05/06 01:30:42;;;;;;;0.20;0.20;;;;;;;14.19;63.49;102676.66;5009562;28;20058;-80
2022/05/06 01:33:11;;;;;;;0.40;0.40;;;;;;;14.12;63.52;102683.81;4995630;28;20034;-80
2022/05/06 01:38:24;;;;;;;0.17;0.17;;;;;;;14.11;63.89;102684.69;5061209;28;20423;-80
2022/05/06 01:40:56;;;;;;;0.10;0.10;;;;;;;14.10;64.65;102682.91;5055305;28;20037;-80
2022/05/06 01:43:26;;;;;;;0.45;0.45;;;;;;;14.03;65.16;102679.41;5058445;28;20029;-79
2022/05/06 01:45:54;;;;;;;0.10;0.10;;;;;;;14.08;65.30;102679.38;5054951;28;20563;-80
2022/05/06 01:48:22;;;;;;;0.35;0.35;;;;;;;14.12;64.69;102673.16;5059172;28;20056;-79
2022/05/06 01:50:49;;;;;;;0.10;0.10;;;;;;;14.09;64.79;102670.47;5057387;28;20028;-79
2022/05/06 01:53:17;;;;;;;1.00;1.00;;;;;;;14.08;64.70;102674.03;5057761;28;20447;-81
2022/05/06 01:55:44;;;;;;;0.00;0.00;;;;;;;14.07;64.45;102680.28;5049479;28;20035;-81
2022/05/06 01:58:11;;;;;;;0.75;0.75;;;;;;;14.07;64.81;102674.94;5050586;28;20091;-80
2022/05/06 02:00:37;;;;;;;0.10;0.10;;;;;;;14.08;64.26;102680.28;5051116;28;20083;-81
2022/05/06 02:03:04;;;;;;;0.20;0.20;;;;;;;14.03;64.54;102681.16;5053110;28;20108;-81
2022/05/06 02:05:31;;;;;;;0.65;0.65;;;;;;;14.05;63.97;102679.41;5055735;28;20045;-81
2022/05/06 02:07:57;;;;;;;1.25;1.25;;;;;;;13.98;64.04;102683.88;5049534;28;20030;-79
2022/05/06 02:10:25;;;;;;;0.13;0.13;;;;;;;13.88;64.64;102683.03;5052613;28;20415;-80
2022/05/06 02:12:51;;;;;;;0.00;0.00;;;;;;;13.85;64.54;102685.69;5054556;28;20048;-81
2022/05/06 02:15:19;;;;;;;0.00;0.00;;;;;;;13.86;64.06;102684.81;5054355;28;20029;-80
2022/05/06 02:17:45;;;;;;;0.22;0.22;;;;;;;13.76;64.30;102685.75;5049667;28;20022;-79
2022/05/06 02:20:13;;;;;;;0.40;0.40;;;;;;;13.75;64.54;102665.31;5051219;28;20056;-80
2022/05/06 02:22:43;;;;;;;0.10;0.10;;;;;;;13.80;65.07;102670.63;5052858;28;20031;-79
2022/05/06 02:25:10;;;;;;;0.17;0.17;;;;;;;13.84;64.22;102667.06;5055310;28;20560;-80
2022/05/06 02:27:37;;;;;;;0.00;0.00;;;;;;;13.88;65.10;102667.06;5057148;28;20037;-78
2022/05/06 02:35:37;;;;;;;0.10;0.10;;;;;;;13.88;65.32;102672.38;5053687;28;20579;-79
2022/05/06 02:38:05;;;;;;;0.10;0.10;;;;;;;13.88;65.54;102676.81;5051985;28;20049;-78
2022/05/06 02:40:34;;;;;;;0.10;0.10;;;;;;;13.91;65.19;102675.00;5054785;28;20060;-79
2022/05/06 02:43:02;;;;;;;0.10;0.10;;;;;;;13.89;64.70;102674.16;5053247;28;20581;-80
2022/05/06 02:45:28;;;;;;;0.00;0.00;;;;;;;13.84;65.05;102670.59;5052711;28;20052;-80
2022/05/06 02:47:54;;;;;;;0.05;0.05;;;;;;;13.84;65.59;102675.06;5048402;28;20040;-79
2022/05/06 02:50:21;;;;;;;0.82;0.82;;;;;;;13.85;66.05;102672.38;5035245;28;20065;-80
2022/05/06 02:52:47;;;;;;;0.47;0.35;;;;;;;13.88;65.13;102683.03;5033770;28;20030;-79
2022/05/06 02:55:13;;;;;;;0.10;0.10;;;;;;;13.85;65.01;102680.38;5037028;28;20038;-79
2022/05/06 02:57:39;;;;;;;0.10;0.10;;;;;;;13.80;65.13;102676.84;5036825;28;20107;-80
2022/05/06 03:00:06;;;;;;;0.00;0.00;;;;;;;13.79;65.76;102675.06;5036626;28;20041;-80
2022/05/06 03:02:32;;;;;;;0.60;0.60;;;;;;;13.75;65.77;102681.31;5041186;28;20492;-79
2022/05/06 03:04:58;;;;;;;0.00;0.00;;;;;;;13.78;65.50;102681.28;5041521;28;20116;-78
2022/05/06 03:07:24;;;;;;;0.10;0.10;;;;;;;13.76;65.83;102683.09;5041828;28;20081;-79
2022/05/06 03:09:52;;;;;;;0.10;0.10;;;;;;;13.77;65.65;102678.63;5038305;28;20037;-79
2022/05/06 03:12:20;;;;;;;0.35;0.35;;;;;;;13.82;65.04;102683.06;5039247;28;20033;-79
2022/05/06 03:14:46;;;;;;;0.50;0.50;;;;;;;13.84;65.61;102681.25;5038834;28;20120;-80
2022/05/06 03:17:13;;;;;;;0.10;0.10;;;;;;;13.89;64.11;102681.25;5035709;28;20032;-81
2022/05/06 03:19:39;;;;;;;0.00;0.00;;;;;;;13.81;65.08;102675.94;5040157;28;20059;-79
2022/05/06 03:22:07;;;;;;;0.10;0.10;;;;;;;13.83;65.28;102674.19;5042381;28;20033;-79
2022/05/06 03:24:33;;;;;;;0.20;0.20;;;;;;;13.80;65.40;102671.50;5043506;28;20029;-80
2022/05/06 03:27:00;;;;;;;0.80;0.80;;;;;;;13.75;64.57;102673.31;5046065;28;20025;-81
2022/05/06 03:29:26;;;;;;;0.03;0.03;;;;;;;13.72;65.52;102666.22;5046862;28;20045;-80
2022/05/06 03:31:53;;;;;;;0.10;0.10;;;;;;;13.66;65.30;102670.69;5031465;28;20056;-81
2022/05/06 03:34:20;;;;;;;0.15;0.15;;;;;;;13.68;65.23;102669.81;5038268;28;20053;-80
2022/05/06 03:36:46;;;;;;;0.05;0.05;;;;;;;13.68;65.62;102666.22;5036727;28;20025;-81
2022/05/06 03:39:13;;;;;;;1.48;0.88;;;;;;;13.70;65.20;102668.00;5039469;28;20033;-82
2022/05/06 03:41:39;;;;;;;0.22;0.22;;;;;;;13.73;65.22;102667.09;5038931;28;20519;-79
2022/05/06 03:44:06;;;;;;;0.40;0.40;;;;;;;13.75;65.03;102665.31;5040351;28;20041;-79
2022/05/06 03:46:33;;;;;;;0.20;0.20;;;;;;;13.78;65.25;102670.63;5032962;28;20040;-81
2022/05/06 03:49:01;;;;;;;0.20;0.20;;;;;;;13.78;65.84;102673.28;5045462;28;20044;-79
2022/05/06 03:51:28;;;;;;;0.43;0.43;;;;;;;13.81;65.45;102673.28;5044591;28;20045;-79
2022/05/06 03:53:56;;;;;;;0.03;0.03;;;;;;;13.81;65.14;102667.97;5044661;28;20037;-82
2022/05/06 03:56:22;;;;;;;0.35;0.35;;;;;;;13.80;65.18;102671.50;5044389;28;20056;-81
2022/05/06 03:58:50;;;;;;;0.10;0.10;;;;;;;13.78;65.06;102670.63;5043062;28;20044;-79
2022/05/06 04:01:18;;;;;;;0.08;0.08;;;;;;;13.75;64.93;102673.31;5041266;28;20598;-79
2022/05/06 04:03:44;;;;;;;0.00;0.00;;;;;;;13.73;65.50;102677.75;5039614;28;20024;-80
2022/05/06 04:06:13;;;;;;;0.00;0.00;;;;;;;13.73;65.72;102677.75;5043315;28;20033;-80
2022/05/06 04:08:41;;;;;;;0.65;0.65;;;;;;;13.68;66.52;102672.47;5037022;28;20021;-79
2022/05/06 04:11:09;;;;;;;0.10;0.10;;;;;;;13.73;65.15;102680.41;5040143;28;20033;-79
2022/05/06 04:13:35;;;;;;;0.20;0.20;;;;;;;13.74;66.75;102679.53;5038425;28;21372;-79
2022/05/06 04:16:02;;;;;;;0.43;0.43;;;;;;;13.78;66.29;102675.06;5038686;28;20059;-79
2022/05/06 04:18:28;;;;;;;1.55;1.20;;;;;;;13.81;65.47;102675.09;5040020;28;20045;-79
2022/05/06 04:23:41;;;;;;;0.10;0.10;;;;;;;13.83;65.81;102679.50;5031592;28;20569;-79
2022/05/06 04:26:11;;;;;;;0.00;0.00;;;;;;;13.81;65.59;102675.09;5039918;28;20431;-81
2022/05/06 04:28:38;;;;;;;0.98;0.38;;;;;;;13.81;65.60;102681.28;5038681;28;20923;-80
2022/05/06 04:31:05;;;;;;;0.65;0.45;;;;;;;13.77;66.16;102682.19;5040162;28;20029;-80
2022/05/06 04:33:32;;;;;;;0.00;0.00;;;;;;;13.80;65.67;102684.84;5034246;28;20037;-80
2022/05/06 04:35:59;;;;;;;0.08;0.08;;;;;;;13.79;65.34;102684.84;5036062;28;20048;-80
2022/05/06 04:38:26;;;;;;;0.47;0.47;;;;;;;13.80;65.81;102682.16;5037785;28;20060;-80
2022/05/06 04:40:55;;;;;;;0.30;0.30;;;;;;;13.81;65.63;102686.63;5039300;28;20029;-79
2022/05/06 04:43:21;;;;;;;0.10;0.10;;;;;;;13.74;65.99;102685.75;5035949;28;20068;-79
2022/05/06 04:45:48;;;;;;;1.95;1.10;;;;;;;13.75;66.13;102678.66;5034811;28;20048;-80
2022/05/06 04:48:15;;;;;;;0.10;0.10;;;;;;;13.77;66.72;102683.97;5037227;28;20025;-78
2022/05/06 04:50:44;;;;;;;3.40;0.80;;;;;;;13.83;66.72;102689.25;5035951;28;20048;-77
2022/05/06 04:53:11;;;;;;;0.75;0.75;;;;;;;13.91;66.99;102695.47;5037709;28;20041;-80
2022/05/06 04:55:42;;;;;;;0.10;0.10;;;;;;;14.00;66.48;102691.88;5038283;28;20068;-79
2022/05/06 04:58:08;;;;;;;0.10;0.10;;;;;;;14.04;66.51;102693.63;5039752;28;20112;-79
2022/05/06 05:00:35;;;;;;;0.20;0.20;;;;;;;14.06;65.61;102691.84;5035699;28;20029;-78
2022/05/06 05:03:03;;;;;;;0.10;0.10;;;;;;;14.03;66.41;102702.50;5038009;28;20025;-79
2022/05/06 05:05:29;;;;;;;0.73;0.25;;;;;;;14.06;65.57;102703.38;5038133;28;20028;-79
2022/05/06 05:07:55;;;;;;;0.20;0.20;;;;;;;14.04;65.03;102693.63;5033735;28;20034;-80
2022/05/06 05:10:22;;;;;;;0.98;0.90;;;;;;;13.96;65.28;102704.31;5038188;28;20061;-80
2022/05/06 05:12:49;;;;;;;0.20;0.20;;;;;;;13.94;65.23;102697.22;5035444;28;20083;-81
2022/05/06 05:15:16;;;;;;;0.13;0.13;;;;;;;13.93;65.50;102701.66;5031500;28;20048;-79
2022/05/06 05:17:44;;;;;;;0.10;0.10;;;;;;;13.90;65.57;102707.00;5038676;28;20816;-81
2022/05/06 05:20:11;;;;;;;1.58;1.50;;;;;;;13.91;65.22;102707.00;5038784;28;20029;-79
2022/05/06 05:22:38;;;;;;;0.20;0.20;;;;;;;13.93;65.62;102708.75;5030795;28;20061;-79
2022/05/06 05:25:04;;;;;;;0.15;0.15;;;;;;;13.94;66.20;102710.53;5034828;28;20087;-80
2022/05/06 05:27:32;;;;;;;0.10;0.10;;;;;;;13.98;65.36;102715.88;5033554;28;20450;-80
2022/05/06 05:29:59;;;;;;;0.08;0.08;;;;;;;13.97;65.54;102713.19;5039195;28;20033;-80
2022/05/06 05:32:26;;;;;;;0.10;0.10;;;;;;;13.90;65.15;102715.88;5039558;28;20057;-80
2022/05/06 05:34:52;;;;;;;0.10;0.10;;;;;;;13.88;64.96;102715.00;5036715;28;20040;-80
2022/05/06 05:37:18;;;;;;;0.00;0.00;;;;;;;13.86;65.32;102722.13;5036743;28;20034;-79
2022/05/06 05:39:45;;;;;;;0.30;0.30;;;;;;;13.89;65.21;102719.44;5041332;28;20037;-79
2022/05/06 05:42:13;;;;;;;0.10;0.10;;;;;;;13.91;65.90;102719.44;5039406;28;20037;-78
2022/05/06 05:50:12;;;;;;;0.00;0.00;;;;;;;14.12;65.05;102717.56;5048778;22;20048;-79
2022/05/06 05:52:38;;;;;;;0.00;0.00;;;;;;;14.16;65.10;102714.00;5003956;28;20030;-81
2022/05/06 05:55:04;;;;;;;0.57;0.57;;;;;;;14.22;65.19;102717.50;5010316;28;20033;-82
2022/05/06 05:57:30;;;;;;;0.00;0.00;;;;;;;14.29;65.35;102709.47;5005962;28;20037;-82
2022/05/06 05:59:57;;;;;;;0.10;0.10;;;;;;;14.40;64.98;102707.63;5001189;28;20030;-81
2022/05/06 06:02:24;;;;;;;0.00;0.00;;;;;;;14.48;65.43;102704.91;4989297;28;20402;-81
2022/05/06 06:04:50;;;;;;;0.00;0.00;;;;;;;14.51;64.90;102704.91;4991304;28;20049;-82
2022/05/06 06:07:18;;;;;;;0.10;0.10;;;;;;;14.60;65.03;102706.63;4997635;28;20464;-81
2022/05/06 06:09:44;;;;;;;0.82;0.82;;;;;;;14.64;65.22;102713.69;4995099;28;20054;-81
2022/05/06 06:12:10;;;;;;;0.45;0.32;;;;;;;14.65;64.96;102710.19;4998119;28;20042;-81
2022/05/06 06:14:36;;;;;;;0.57;0.57;;;;;;;14.74;64.82;102711.88;4989357;28;20031;-81
2022/05/06 06:17:02;;;;;;;0.10;0.10;;;;;;;14.80;64.32;102718.06;4994490;28;20464;-81
2022/05/06 06:19:29;;;;;;;0.10;0.10;;;;;;;14.84;63.89;102724.25;4996324;28;20038;-82
2022/05/06 06:21:54;;;;;;;0.30;0.30;;;;;;;14.85;64.17;102720.69;4995639;28;20026;-81
2022/05/06 06:24:21;;;;;;;0.15;0.15;;;;;;;14.92;63.98;102725.09;4997925;28;20038;-82
2022/05/06 06:26:47;;;;;;;0.20;0.20;;;;;;;14.99;63.89;102728.59;4998336;28;20041;-81
2022/05/06 06:29:13;;;;;;;0.05;0.05;;;;;;;15.07;63.63;102725.88;5002028;28;20041;-81
2022/05/06 06:31:39;;;;;;;0.00;0.00;;;;;;;15.00;63.44;102730.34;5002321;28;20041;-83
2022/05/06 06:34:05;;;;;;;0.20;0.20;;;;;;;14.92;63.31;102732.22;4996854;28;20042;-82
2022/05/06 06:36:31;;;;;;;0.05;0.05;;;;;;;14.88;63.06;102728.69;5001914;28;20069;-81
2022/05/06 06:38:57;;;;;;;0.20;0.20;;;;;;;14.88;63.33;102731.34;5004643;28;20036;-82
2022/05/06 06:41:24;;;;;;;0.20;0.20;;;;;;;14.92;63.48;102742.91;4999519;28;20505;-80
2022/05/06 06:43:50;;;;;;;0.00;0.00;;;;;;;14.96;63.25;102741.97;4996979;28;20077;-82
2022/05/06 06:46:17;;;;;;;0.05;0.05;;;;;;;14.95;63.10;102740.19;4994962;28;20057;-81
2022/05/06 06:48:45;;;;;;;0.10;0.10;;;;;;;15.07;63.14;102742.75;4992728;28;20061;-80
2022/05/06 06:51:11;;;;;;;0.00;0.00;;;;;;;15.11;63.10;102741.81;4992997;28;20039;-80
2022/05/06 06:53:37;;;;;;;0.52;0.52;;;;;;;15.14;62.65;102747.16;4993783;28;20505;-81
2022/05/06 06:56:04;;;;;;;0.28;0.28;;;;;;;15.18;62.55;102734.66;4991767;28;20146;-81
2022/05/06 06:58:30;;;;;;;0.00;0.00;;;;;;;15.26;62.70;102739.94;4996263;28;20041;-82
2022/05/06 07:00:58;;;;;;;0.35;0.35;;;;;;;15.33;62.47;102741.66;4994747;28;20049;-81
2022/05/06 07:03:24;;;;;;;0.10;0.10;;;;;;;15.37;62.26;102743.38;4996760;28;20449;-81
2022/05/06 07:11:53;;;;;;;0.35;0.35;;;;;;;15.43;61.27;102756.69;4996203;28;20069;-81
2022/05/06 07:14:08;;;;;;;0.40;0.40;;;;;;;15.52;61.29;102759.25;4994386;28;20054;-81
2022/05/06 07:16:35;;;;;;;0.10;0.10;;;;;;;15.51;61.16;102760.16;4996840;28;20094;-81
2022/05/06 07:19:01;;;;;;;0.25;0.25;;;;;;;15.55;60.79;102760.13;5001714;28;20574;-81
2022/05/06 07:21:27;;;;;;;0.38;0.38;;;;;;;15.68;60.88;102756.44;5000062;28;20494;-82
2022/05/06 07:23:53;;;;;;;0.00;0.00;;;;;;;15.79;60.93;102759.88;4992242;28;20053;-81
2022/05/06 07:26:19;;;;;;;0.13;0.13;;;;;;;15.88;60.69;102753.56;4994263;28;20070;-81
2022/05/06 07:28:45;;;;;;;0.30;0.30;;;;;;;15.96;59.89;102750.78;4997536;28;20026;-81
2022/05/06 07:31:16;;;;;;;0.10;0.10;;;;;;;16.11;60.19;102752.38;5004208;28;20042;-82
2022/05/06 07:33:42;;;;;;;2.28;0.93;;;;;;;16.15;60.22;102762.16;4999729;28;20072;-81
2022/05/06 07:36:08;;;;;;;1.80;1.70;;;;;;;16.27;59.19;102755.75;5005083;28;20119;-83
2022/05/06 07:38:34;;;;;;;0.70;0.70;;;;;;;16.36;58.98;102760.97;5007113;28;20479;-81
2022/05/06 07:41:03;;;;;;;0.20;0.20;;;;;;;16.36;58.37;102750.25;4997413;28;20042;-82
2022/05/06 07:43:29;;;;;;;1.13;0.17;;;;;;;16.42;58.10;102744.81;5004816;28;20030;-82
2022/05/06 07:45:55;;;;;;;1.63;1.55;;;;;;;16.27;58.45;102745.06;4999535;28;20062;-82
2022/05/06 07:48:21;;;;;;;2.55;2.05;;;;;;;16.13;58.50;102738.09;5001407;28;20140;-83
2022/05/06 07:50:48;;;;;;;2.80;1.65;;;;;;;16.12;58.95;102736.31;5000315;28;20486;-83
2022/05/06 07:53:15;;;;;;;0.57;0.22;;;;;;;16.09;59.13;102736.38;4997987;28;20033;-83
2022/05/06 07:55:42;;;;;;;4.38;0.88;;;;;;;16.01;59.17;102731.13;4997147;28;20030;-83
2022/05/06 07:58:09;;;;;;;0.30;0.30;;;;;;;16.10;59.31;102743.50;4997899;28;20038;-83
2022/05/06 08:00:35;;;;;;;0.93;0.93;;;;;;;16.11;59.36;102739.03;4997791;28;20038;-83
2022/05/06 08:05:49;;;;;;;1.85;1.65;;;;;;;16.27;59.26;102739.72;4996370;28;20430;-82
2022/05/06 08:08:16;;;;;;;0.93;0.65;;;;;;;16.24;59.07;102737.09;4998383;28;20034;-83
2022/05/06 08:10:44;;;;;;;0.45;0.45;;;;;;;16.27;59.13;102729.88;4998288;28;20486;-83
2022/05/06 08:13:10;;;;;;;0.10;0.10;;;;;;;16.33;58.99;102734.28;5001336;28;20398;-82
2022/05/06 08:15:36;;;;;;;0.68;0.65;;;;;;;16.44;58.73;102734.13;5000317;28;20038;-83
2022/05/06 08:18:03;;;;;;;0.10;0.10;;;;;;;16.49;59.18;102721.56;5001933;28;20044;-82
2022/05/06 08:20:29;;;;;;;0.13;0.13;;;;;;;16.57;58.20;102718.78;4995551;28;20057;-79
2022/05/06 08:22:55;;;;;;;1.40;1.35;;;;;;;16.68;58.59;102722.16;4990940;28;20069;-80
2022/05/06 08:25:22;;;;;;;0.30;0.30;;;;;;;16.81;58.45;102721.06;4990579;28;20502;-80
2022/05/06 08:27:49;;;;;;;0.50;0.50;;;;;;;16.84;58.06;102725.47;4992593;28;20033;-81
2022/05/06 08:30:15;;;;;;;0.57;0.57;;;;;;;17.01;57.63;102727.94;4993279;28;20026;-79
2022/05/06 08:32:42;;;;;;;0.20;0.20;;;;;;;17.08;57.95;102724.19;4992958;28;20030;-79
2022/05/06 08:35:09;;;;;;;1.00;1.00;;;;;;;17.21;57.11;102713.28;4994148;28;20046;-80
2022/05/06 08:37:50;;;;;;;0.05;0.05;;;;;;;17.39;57.06;102712.94;4994592;28;20026;-81
2022/05/06 08:42:53;;;;;;;0.10;0.10;;;;;;;17.60;56.59;102705.41;5065608;28;20406;-79
2022/05/06 08:50:57;;;;;;;8.13;2.20;;;;;;;18.01;56.84;102711.75;5053976;28;20116;-79
2022/05/06 08:53:27;;;;;;;0.17;0.17;;;;;;;18.15;57.19;102713.25;5060721;28;20049;-78
2022/05/06 08:55:55;;;;;;;1.77;1.15;;;;;;;18.18;56.93;102715.84;5056519;28;21285;-79
2022/05/06 08:58:22;;;;;;;0.77;0.77;;;;;;;18.34;57.38;102714.59;5057482;28;20033;-80
2022/05/06 09:00:49;;;;;;;4.22;1.58;;;;;;;18.44;57.39;102704.53;5065065;28;20036;-79
2022/05/06 09:03:17;;;;;;;0.63;0.63;;;;;;;18.58;56.37;102702.41;5062930;28;20037;-79
2022/05/06 09:05:53;;;;;;;0.95;0.93;;;;;;;18.79;56.19;102707.28;5066579;28;20060;-80
2022/05/06 09:08:20;;;;;;;1.15;1.13;;;;;;;18.83;55.57;102708.97;5067386;28;20439;-80
2022/05/06 09:11:04;;;;;;;1.00;1.00;;;;;;;19.06;56.04;102703.91;5068498;28;20069;-80
2022/05/06 09:13:31;;;;;;;1.27;1.23;;;;;;;19.10;54.93;102696.66;5062323;28;20048;-81
2022/05/06 09:16:51;;;;;;;0.80;0.80;;;;;;;19.29;54.03;102688.09;5066874;28;20025;-81
2022/05/06 09:19:28;;;;;;;1.75;0.80;;;;;;;19.37;54.07;102692.34;5060325;28;20063;-81
2022/05/06 09:24:38;;;;;;;5.43;1.70;;;;;;;19.46;53.96;102696.59;5101531;27;1169341;-80
2022/05/06 09:27:13;;;;;;;2.00;1.90;;;;;;;19.59;53.58;102690.84;5114622;28;20059;-80
2022/05/06 09:29:42;;;;;;;0.60;0.60;;;;;;;19.67;53.78;102702.28;5112958;28;20487;-83
2022/05/06 09:32:28;;;;;;;0.57;0.57;;;;;;;19.86;52.75;102702.66;5110557;28;20040;-83
2022/05/06 09:35:14;;;;;;;0.20;0.20;;;;;;;20.00;52.71;102700.44;5114406;28;20036;-83
2022/05/06 09:40:27;;;;;;;1.02;1.02;;;;;;;20.13;52.66;102700.06;5128372;27;20913;-83
2022/05/06 09:45:39;;;;;;;3.08;1.75;;;;;;;20.30;51.41;102695.03;5066721;27;20410;-82
2022/05/06 09:48:08;;;;;;;0.47;0.47;;;;;;;20.33;50.32;102686.00;5060955;28;20056;-82
2022/05/06 09:50:41;;;;;;;0.50;0.50;;;;;;;20.43;49.76;102687.44;5058925;28;20064;-83
2022/05/06 09:53:09;;;;;;;0.35;0.35;;;;;;;20.51;48.29;102692.56;5048594;28;20029;-82
2022/05/06 09:55:38;;;;;;;0.65;0.65;;;;;;;20.67;50.10;102699.25;5050812;28;20117;-82
2022/05/06 09:58:04;;;;;;;0.50;0.50;;;;;;;20.71;49.29;102693.75;5040942;28;20036;-82
2022/05/06 10:00:32;;;;;;;1.83;1.35;;;;;;;20.84;49.27;102679.84;5041078;28;20047;-83
2022/05/06 10:03:00;;;;;;;0.65;0.65;;;;;;;20.89;48.56;102676.13;5036904;28;20029;-82
2022/05/06 10:05:28;;;;;;;1.25;1.25;;;;;;;21.00;47.12;102680.19;5039140;28;20483;-82
2022/05/06 10:08:01;;;;;;;0.28;0.28;;;;;;;21.16;47.75;102676.97;5043036;28;20049;-82
2022/05/06 10:10:30;;;;;;;2.50;1.00;;;;;;;21.26;47.53;102669.41;5043003;28;20057;-82
2022/05/06 10:13:06;;;;;;;0.30;0.30;;;;;;;21.39;47.93;102669.88;5046549;28;20079;-81
2022/05/06 10:15:33;;;;;;;1.55;1.25;;;;;;;21.39;47.43;102676.13;5046447;28;20417;-82
2022/05/06 10:18:02;;;;;;;1.40;1.20;;;;;;;21.53;46.74;102669.34;5044164;28;20040;-82
2022/05/06 10:23:15;;;;;;;1.88;1.55;;;;;;;21.67;47.02;102663.47;5100518;27;20409;-80
2022/05/06 10:34:06;;;;;;;0.50;0.50;;;;;;;22.15;44.59;102659.78;5119627;28;20036;-81
2022/05/06 10:36:53;;;;;;;0.73;0.73;;;;;;;22.15;44.38;102651.69;5119042;28;20118;-81
2022/05/06 10:39:22;;;;;;;0.57;0.57;;;;;;;22.13;45.02;102650.84;5126189;27;20039;-84
2022/05/06 10:44:49;;;;;;;0.10;0.10;;;;;;;22.33;44.65;102650.06;5113458;27;20125;-82
2022/05/06 10:49:53;;;;;;;0.63;0.63;;;;;;;22.51;43.84;102643.03;5082450;27;20428;-83
2022/05/06 10:55:00;;;;;;;0.47;0.47;;;;;;;22.78;44.11;102630.19;5113666;27;20164;-83
2022/05/06 10:57:28;;;;;;;0.38;0.38;;;;;;;22.85;43.54;102633.47;5108749;28;20024;-83
2022/05/06 11:00:02;;;;;;;2.85;1.35;;;;;;;23.09;44.15;102634.25;5109154;28;20115;-82
2022/05/06 11:02:33;;;;;;;1.00;1.00;;;;;;;23.35;43.42;102631.34;5109083;28;20039;-82
2022/05/06 11:05:03;;;;;;;0.10;0.10;;;;;;;23.54;42.60;102625.94;5112389;28;20048;-82
2022/05/06 11:07:31;;;;;;;0.30;0.30;;;;;;;23.53;40.27;102625.06;5111488;28;20487;-83
2022/05/06 11:09:58;;;;;;;0.63;0.63;;;;;;;23.72;40.84;102629.63;5111179;28;20032;-83
2022/05/06 11:15:09;;;;;;;2.47;1.85;;;;;;;23.72;40.00;102624.22;5072549;28;20410;-81
2022/05/06 11:17:36;;;;;;;0.20;0.20;;;;;;;23.78;41.32;102626.63;5069724;28;20060;-80
2022/05/06 11:20:05;;;;;;;0.20;0.20;;;;;;;23.86;38.44;102615.41;5065164;28;20040;-80
2022/05/06 11:22:33;;;;;;;0.20;0.20;;;;;;;24.10;40.16;102618.81;5069550;28;20044;-80
2022/05/06 11:25:01;;;;;;;0.32;0.32;;;;;;;24.30;38.30;102611.50;5068368;28;20109;-80
2022/05/06 11:27:27;;;;;;;1.48;1.38;;;;;;;24.30;37.19;102606.97;5070217;28;20083;-80
2022/05/06 11:29:56;;;;;;;0.30;0.30;;;;;;;24.51;38.17;102602.31;5066121;28;20105;-80
2022/05/06 11:32:24;;;;;;;1.02;1.02;;;;;;;24.35;36.43;102609.44;5068642;28;20488;-81
2022/05/06 11:35:01;;;;;;;0.30;0.30;;;;;;;24.66;37.51;102599.78;5064926;28;20392;-81
2022/05/06 11:37:29;;;;;;;0.30;0.30;;;;;;;24.76;36.78;102606.47;5067748;28;20123;-81
2022/05/06 11:42:42;;;;;;;0.20;0.20;;;;;;;24.85;37.99;102595.13;5071115;28;20033;-80
2022/05/06 11:48:06;;;;;;;0.50;0.50;;;;;;;25.13;37.22;102588.22;5054173;28;20040;-80
2022/05/06 11:53:08;;;;;;;0.10;0.10;;;;;;;25.46;35.84;102590.09;5033696;28;20057;-80
2022/05/06 11:55:36;;;;;;;0.47;0.45;;;;;;;25.60;34.70;102583.88;5035810;28;20408;-80
2022/05/06 11:58:05;;;;;;;0.10;0.10;;;;;;;25.73;35.57;102583.19;5034787;28;20033;-80
2022/05/06 12:00:33;;;;;;;0.25;0.25;;;;;;;25.67;36.43;102592.53;5035657;28;20040;-79
2022/05/06 12:03:04;;;;;;;0.22;0.22;;;;;;;25.78;35.55;102590.13;5036165;28;20029;-79
2022/05/06 12:05:31;;;;;;;0.20;0.20;;;;;;;25.90;35.11;102584.94;5035591;28;20030;-79
2022/05/06 12:07:57;;;;;;;0.55;0.55;;;;;;;26.10;35.47;102579.25;5035584;28;20056;-78
2022/05/06 12:15:41;;;;;;;0.40;0.40;;;;;;;25.90;34.36;102576.81;5077277;28;20402;-80
2022/05/06 12:18:10;;;;;;;0.13;0.13;;;;;;;25.82;33.78;102575.41;5051199;28;20036;-80
2022/05/06 12:20:39;;;;;;;0.17;0.17;;;;;;;25.66;34.16;102575.41;5039567;28;20034;-79
2022/05/06 12:23:08;;;;;;;0.25;0.25;;;;;;;25.34;35.05;102574.47;5056620;28;20033;-79
2022/05/06 12:25:36;;;;;;;0.20;0.20;;;;;;;25.24;34.75;102570.50;5057447;28;20033;-79
2022/05/06 12:30:44;;;;;;;0.63;0.63;;;;;;;25.40;33.98;102567.88;5071010;28;20970;-77
2022/05/06 12:33:15;;;;;;;0.30;0.30;;;;;;;25.58;33.91;102571.38;5061543;28;20433;-79
2022/05/06 12:41:20;;;;;;;0.40;0.40;;;;;;;25.68;34.38;102573.47;5116429;27;20385;-79
2022/05/06 12:43:48;;;;;;;0.38;0.38;;;;;;;25.63;34.50;102571.97;5118765;28;20062;-80
2022/05/06 12:46:31;;;;;;;0.50;0.50;;;;;;;25.67;33.71;102578.97;5117992;28;20115;-79
2022/05/06 12:51:49;;;;;;;0.10;0.10;;;;;;;26.01;32.62;102579.78;5118265;28;20446;-79
2022/05/06 12:54:15;;;;;;;0.10;0.10;;;;;;;26.06;33.16;102572.25;5118180;28;20039;-80
2022/05/06 12:56:45;;;;;;;0.52;0.52;;;;;;;26.14;32.09;102560.94;5116981;28;20031;-80